UAE21 KSAN-KLAX
Flight info
| Callsign | UAE21 |
|---|---|
| Flight time | N/A |
| Altitude | 10000 |
| Route | CWARD2 SLI |
| Aircraft | A388/J-SADE2E3FGHIJ3J4J5M1RWXY/LB1D1 |
Departure
| Time | 2026-04-26 15:47 |
|---|---|
| Airport | San Diego International Airport (KSAN) |
Arrival
| Time | N/A |
|---|---|
| Airport | Los Angeles International Airport (KLAX) |
| Time | Latitude | Longitude | Altitude | Speed | Heading |
|---|---|---|---|---|---|
| 2026-04-26 15:35 | 32.73261 | -117.20647 | 31 ft | 0 kts | 179° |
| 2026-04-26 15:41 | 32.73262 | -117.20647 | 31 ft | 1 kts | 179° |
| 2026-04-26 15:41 | 32.73305 | -117.20648 | 29 ft | 8 kts | 180° |
| 2026-04-26 15:41 | 32.73356 | -117.20664 | 27 ft | 8 kts | 126° |
| 2026-04-26 15:42 | 32.73353 | -117.20701 | 25 ft | 0 kts | 76° |
| 2026-04-26 15:43 | 32.73559 | -117.20509 | 29 ft | 36 kts | 46° |
| 2026-04-26 15:44 | 32.73582 | -117.20351 | 28 ft | 17 kts | 95° |
| 2026-04-26 15:44 | 32.73465 | -117.19815 | 33 ft | 66 kts | 104° |
| 2026-04-26 15:44 | 32.73342 | -117.19347 | 30 ft | 56 kts | 105° |
| 2026-04-26 15:45 | 32.73150 | -117.18563 | 30 ft | 44 kts | 105° |
| 2026-04-26 15:45 | 32.73071 | -117.18223 | 28 ft | 41 kts | 105° |
| 2026-04-26 15:46 | 32.72980 | -117.17657 | 30 ft | 16 kts | 28° |
| 2026-04-26 15:46 | 32.73038 | -117.17684 | 32 ft | 29 kts | 310° |
| 2026-04-26 15:46 | 32.73203 | -117.18302 | 29 ft | 126 kts | 284° |
| 2026-04-26 15:46 | 32.73383 | -117.19125 | 45 ft | 169 kts | 285° |
| 2026-04-26 15:47 | 32.73902 | -117.21027 | 587 ft | 196 kts | 291° |
| 2026-04-26 15:47 | 32.75560 | -117.24130 | 2109 ft | 234 kts | 304° |
| 2026-04-26 15:47 | 32.76510 | -117.25710 | 3200 ft | 241 kts | 302° |
| 2026-04-26 15:48 | 32.77531 | -117.27360 | 4256 ft | 254 kts | 312° |
| 2026-04-26 15:48 | 32.79010 | -117.28585 | 5343 ft | 266 kts | 329° |
| 2026-04-26 15:48 | 32.80700 | -117.29585 | 6377 ft | 277 kts | 330° |
| 2026-04-26 15:48 | 32.82464 | -117.30688 | 7102 ft | 295 kts | 327° |
| 2026-04-26 15:49 | 32.84276 | -117.31954 | 7722 ft | 306 kts | 325° |
| 2026-04-26 15:49 | 32.86001 | -117.33231 | 8333 ft | 273 kts | 324° |
| 2026-04-26 15:49 | 32.87502 | -117.34372 | 8831 ft | 253 kts | 323° |
| 2026-04-26 15:49 | 32.89006 | -117.35542 | 9227 ft | 266 kts | 323° |
| 2026-04-26 15:50 | 32.90597 | -117.36786 | 9629 ft | 273 kts | 323° |
| 2026-04-26 15:50 | 32.92175 | -117.38014 | 9919 ft | 275 kts | 323° |
| 2026-04-26 15:50 | 32.93802 | -117.39276 | 9973 ft | 277 kts | 323° |
| 2026-04-26 15:50 | 32.95401 | -117.40513 | 9972 ft | 276 kts | 323° |
| 2026-04-26 15:51 | 32.97008 | -117.41756 | 9973 ft | 275 kts | 323° |
| 2026-04-26 15:51 | 32.98599 | -117.42988 | 9969 ft | 275 kts | 323° |
| 2026-04-26 15:51 | 33.00207 | -117.44234 | 9972 ft | 275 kts | 323° |
| 2026-04-26 15:51 | 33.01752 | -117.45432 | 9972 ft | 275 kts | 323° |
| 2026-04-26 15:52 | 33.03423 | -117.46735 | 9976 ft | 304 kts | 323° |
| 2026-04-26 15:52 | 33.05269 | -117.48179 | 9974 ft | 326 kts | 324° |
| 2026-04-26 15:52 | 33.07192 | -117.49672 | 9972 ft | 333 kts | 324° |
| 2026-04-26 15:52 | 33.08477 | -117.50666 | 9976 ft | 333 kts | 323° |
| 2026-04-26 15:53 | 33.11057 | -117.52659 | 9973 ft | 335 kts | 324° |
| 2026-04-26 15:53 | 33.12996 | -117.54159 | 9972 ft | 331 kts | 324° |
| 2026-04-26 15:53 | 33.14914 | -117.55651 | 9970 ft | 331 kts | 324° |
| 2026-04-26 15:53 | 33.16843 | -117.57157 | 9970 ft | 331 kts | 324° |
| 2026-04-26 15:54 | 33.18773 | -117.58664 | 9974 ft | 330 kts | 323° |
| 2026-04-26 15:54 | 33.20701 | -117.60167 | 9966 ft | 330 kts | 324° |
| 2026-04-26 15:54 | 33.22623 | -117.61666 | 9968 ft | 330 kts | 324° |
| 2026-04-26 15:54 | 33.24538 | -117.63162 | 9967 ft | 330 kts | 324° |
| 2026-04-26 15:55 | 33.26456 | -117.64661 | 9967 ft | 330 kts | 324° |
| 2026-04-26 15:55 | 33.28381 | -117.66165 | 9966 ft | 330 kts | 324° |
| 2026-04-26 15:55 | 33.30297 | -117.67662 | 9966 ft | 330 kts | 324° |
| 2026-04-26 15:55 | 33.32218 | -117.69165 | 9965 ft | 330 kts | 323° |
| 2026-04-26 15:56 | 33.34143 | -117.70670 | 9965 ft | 330 kts | 324° |
| 2026-04-26 15:56 | 33.36068 | -117.72178 | 9962 ft | 330 kts | 323° |
| 2026-04-26 15:56 | 33.37976 | -117.73672 | 9966 ft | 330 kts | 323° |
| 2026-04-26 15:56 | 33.39907 | -117.75185 | 9956 ft | 330 kts | 323° |
| 2026-04-26 15:57 | 33.41827 | -117.76690 | 9966 ft | 329 kts | 323° |
| 2026-04-26 15:57 | 33.43742 | -117.78192 | 9961 ft | 330 kts | 323° |
| 2026-04-26 15:57 | 33.45636 | -117.79677 | 9964 ft | 318 kts | 323° |
| 2026-04-26 15:57 | 33.46838 | -117.80617 | 9967 ft | 303 kts | 323° |
| 2026-04-26 15:58 | 33.49099 | -117.82387 | 9964 ft | 279 kts | 323° |
| 2026-04-26 15:58 | 33.50679 | -117.83629 | 9964 ft | 272 kts | 323° |
| 2026-04-26 15:58 | 33.52279 | -117.84892 | 9839 ft | 272 kts | 323° |
| 2026-04-26 15:58 | 33.53852 | -117.86135 | 9728 ft | 271 kts | 323° |
| 2026-04-26 15:59 | 33.55407 | -117.87362 | 9601 ft | 271 kts | 323° |
| 2026-04-26 15:59 | 33.56996 | -117.88615 | 9447 ft | 270 kts | 323° |
| 2026-04-26 15:59 | 33.58543 | -117.89834 | 9331 ft | 269 kts | 323° |
| 2026-04-26 15:59 | 33.60105 | -117.91066 | 9198 ft | 269 kts | 323° |
| 2026-04-26 16:00 | 33.61668 | -117.92298 | 9063 ft | 268 kts | 323° |
| 2026-04-26 16:00 | 33.63240 | -117.93538 | 8940 ft | 267 kts | 323° |
| 2026-04-26 16:00 | 33.64783 | -117.94756 | 8809 ft | 267 kts | 323° |
| 2026-04-26 16:00 | 33.66333 | -117.95979 | 8606 ft | 267 kts | 323° |
| 2026-04-26 16:01 | 33.67891 | -117.97211 | 8342 ft | 268 kts | 323° |
| 2026-04-26 16:01 | 33.69441 | -117.98436 | 8016 ft | 265 kts | 323° |
| 2026-04-26 16:01 | 33.70977 | -117.99649 | 7646 ft | 263 kts | 323° |
| 2026-04-26 16:01 | 33.72501 | -118.00855 | 7324 ft | 261 kts | 323° |
| 2026-04-26 16:02 | 33.74023 | -118.02059 | 7052 ft | 261 kts | 323° |
| 2026-04-26 16:02 | 33.75533 | -118.03255 | 6958 ft | 260 kts | 323° |
| 2026-04-26 16:02 | 33.77071 | -118.04397 | 6961 ft | 263 kts | 333° |
| 2026-04-26 16:02 | 33.78242 | -118.04785 | 6966 ft | 269 kts | 351° |
| 2026-04-26 16:03 | 33.80709 | -118.04168 | 6964 ft | 276 kts | 26° |
| 2026-04-26 16:03 | 33.82254 | -118.02877 | 6966 ft | 270 kts | 31° |
| 2026-04-26 16:03 | 33.83772 | -118.01568 | 7001 ft | 267 kts | 31° |
| 2026-04-26 16:03 | 33.85271 | -118.00281 | 6998 ft | 264 kts | 31° |
| 2026-04-26 16:04 | 33.86776 | -117.98994 | 7005 ft | 267 kts | 31° |
| 2026-04-26 16:04 | 33.88299 | -117.97694 | 6931 ft | 269 kts | 31° |
| 2026-04-26 16:04 | 33.89183 | -117.96939 | 6812 ft | 270 kts | 31° |
| 2026-04-26 16:04 | 33.90720 | -117.95624 | 6575 ft | 269 kts | 32° |
| 2026-04-26 16:05 | 33.92246 | -117.94316 | 6241 ft | 269 kts | 32° |
| 2026-04-26 16:05 | 33.93763 | -117.93017 | 5857 ft | 268 kts | 32° |
| 2026-04-26 16:05 | 33.95320 | -117.91803 | 5490 ft | 265 kts | 26° |
| 2026-04-26 16:05 | 33.96942 | -117.91006 | 5425 ft | 245 kts | 4° |
| 2026-04-26 16:06 | 33.98038 | -117.91083 | 5424 ft | 229 kts | 338° |
| 2026-04-26 16:06 | 33.99479 | -117.92604 | 5429 ft | 215 kts | 292° |
| 2026-04-26 16:06 | 33.99784 | -117.94307 | 5426 ft | 205 kts | 271° |
| 2026-04-26 16:06 | 33.99711 | -117.95995 | 5431 ft | 196 kts | 264° |
| 2026-04-26 16:07 | 33.99553 | -117.97573 | 5424 ft | 180 kts | 264° |
| 2026-04-26 16:07 | 33.99407 | -117.99048 | 5423 ft | 178 kts | 264° |
| 2026-04-26 16:07 | 33.99256 | -118.00529 | 5429 ft | 179 kts | 263° |
| 2026-04-26 16:07 | 33.99101 | -118.02018 | 5430 ft | 178 kts | 264° |
| 2026-04-26 16:08 | 33.99001 | -118.03005 | 5432 ft | 174 kts | 264° |
| 2026-04-26 16:08 | 33.98854 | -118.04442 | 5428 ft | 173 kts | 264° |
| 2026-04-26 16:08 | 33.98707 | -118.05885 | 5427 ft | 174 kts | 264° |
| 2026-04-26 16:08 | 33.98560 | -118.07332 | 5422 ft | 174 kts | 264° |
| 2026-04-26 16:09 | 33.98412 | -118.08777 | 5331 ft | 173 kts | 264° |
| 2026-04-26 16:09 | 33.98274 | -118.10134 | 5108 ft | 174 kts | 264° |
| 2026-04-26 16:09 | 33.98129 | -118.11554 | 4881 ft | 174 kts | 264° |
| 2026-04-26 16:09 | 33.97985 | -118.12965 | 4646 ft | 174 kts | 264° |
| 2026-04-26 16:10 | 33.97836 | -118.14435 | 4406 ft | 173 kts | 263° |
| 2026-04-26 16:10 | 33.97693 | -118.15833 | 4174 ft | 172 kts | 263° |
| 2026-04-26 16:10 | 33.97545 | -118.17286 | 3935 ft | 171 kts | 263° |
| 2026-04-26 16:10 | 33.97399 | -118.18714 | 3712 ft | 172 kts | 263° |
| 2026-04-26 16:11 | 33.97259 | -118.20096 | 3499 ft | 174 kts | 263° |
| 2026-04-26 16:11 | 33.97112 | -118.21543 | 3267 ft | 174 kts | 262° |
| 2026-04-26 16:11 | 33.96966 | -118.22969 | 3017 ft | 169 kts | 263° |
| 2026-04-26 16:11 | 33.96823 | -118.24378 | 2794 ft | 171 kts | 262° |
| 2026-04-26 16:12 | 33.96679 | -118.25766 | 2567 ft | 172 kts | 263° |
| 2026-04-26 16:12 | 33.96539 | -118.27158 | 2338 ft | 169 kts | 263° |
| 2026-04-26 16:12 | 33.96256 | -118.29933 | 1881 ft | 167 kts | 263° |
| 2026-04-26 16:13 | 33.96117 | -118.31280 | 1668 ft | 166 kts | 263° |
| 2026-04-26 16:13 | 33.95978 | -118.32663 | 1431 ft | 167 kts | 263° |
| 2026-04-26 16:13 | 33.95837 | -118.34024 | 1207 ft | 166 kts | 264° |
| 2026-04-26 16:13 | 33.95705 | -118.35351 | 982 ft | 167 kts | 263° |
| 2026-04-26 16:14 | 33.95558 | -118.36752 | 747 ft | 169 kts | 264° |
| 2026-04-26 16:14 | 33.95457 | -118.37764 | 582 ft | 168 kts | 264° |
| 2026-04-26 16:14 | 33.95242 | -118.39847 | 230 ft | 169 kts | 264° |
| 2026-04-26 16:15 | 33.95191 | -118.40382 | 153 ft | 165 kts | 265° |